Time;durP1;ratioP1;P1;durP2;ratioP2;P2;SDS_P1;SDS_P2;PMS_P1;PMS_P2;Temp;Humidity;BMP_temperature;BMP_pressure;BME280_temperature;BME280_humidity;BME280_pressure;Samples;Min_cycle;Max_cycle;Signal;HPM_P1;HPM_P2
2023/01/14 00:01:10;;;;;;;5.00;1.30;;;18.30;67.20;;;;;;4530642;31;20132;-65
2023/01/14 00:03:36;;;;;;;3.53;1.17;;;18.30;67.30;;;;;;4532315;31;20132;-65
2023/01/14 00:06:03;;;;;;;3.63;1.15;;;18.40;67.30;;;;;;4531168;31;20139;-65
2023/01/14 00:08:30;;;;;;;3.60;1.15;;;18.30;67.30;;;;;;4517017;31;20195;-65
2023/01/14 00:11:08;;;;;;;2.45;0.90;;;18.30;67.30;;;;;;4518850;31;20651;-65
2023/01/14 00:13:36;;;;;;;4.00;1.05;;;18.30;67.30;;;;;;4530534;31;20142;-65
2023/01/14 00:16:04;;;;;;;3.10;1.10;;;18.30;67.30;;;;;;4532143;31;20213;-65
2023/01/14 00:18:33;;;;;;;3.65;1.20;;;18.30;67.30;;;;;;4530194;31;20136;-65
2023/01/14 00:21:05;;;;;;;4.15;1.20;;;18.30;67.30;;;;;;4530723;31;20135;-65
2023/01/14 00:23:33;;;;;;;2.42;1.10;;;18.30;67.30;;;;;;4531632;31;20249;-65
2023/01/14 00:26:10;;;;;;;3.97;1.10;;;18.20;67.30;;;;;;4515927;31;20128;-65
2023/01/14 00:28:36;;;;;;;3.15;1.05;;;18.20;67.30;;;;;;4517552;31;20228;-66
2023/01/14 00:31:06;;;;;;;3.20;0.95;;;18.20;67.30;;;;;;4530184;31;20193;-65
2023/01/14 00:33:32;;;;;;;2.58;1.10;;;18.20;67.20;;;;;;4531750;31;20175;-65
2023/01/14 00:35:58;;;;;;;3.90;1.00;;;18.20;67.20;;;;;;4529575;31;20610;-65
2023/01/14 00:38:24;;;;;;;3.08;0.95;;;18.20;67.30;;;;;;4531350;31;20131;-65
2023/01/14 00:41:09;;;;;;;2.30;0.90;;;18.20;67.30;;;;;;4530392;31;20180;-65
2023/01/14 00:43:37;;;;;;;3.22;1.20;;;18.20;67.20;;;;;;4515732;31;20503;-66
2023/01/14 00:46:05;;;;;;;3.63;0.95;;;18.10;67.20;;;;;;4531654;31;20535;-66
2023/01/14 00:48:32;;;;;;;2.58;0.95;;;18.10;67.20;;;;;;4530168;31;20581;-66
2023/01/14 00:50:58;;;;;;;3.25;1.13;;;18.10;67.20;;;;;;4517068;31;20189;-65
2023/01/14 00:53:25;;;;;;;3.03;1.00;;;18.10;67.20;;;;;;4531000;31;20120;-66
2023/01/14 00:55:50;;;;;;;3.05;1.00;;;18.10;67.10;;;;;;4530482;31;20292;-65
2023/01/14 00:58:16;;;;;;;4.20;1.17;;;18.10;67.10;;;;;;4530435;31;20294;-65
2023/01/14 01:00:43;;;;;;;4.10;1.08;;;18.10;67.20;;;;;;4528659;31;20124;-65
2023/01/14 01:03:09;;;;;;;2.58;0.88;;;18.10;67.10;;;;;;4531373;31;20185;-65
2023/01/14 01:05:36;;;;;;;3.70;1.08;;;18.10;67.10;;;;;;4529957;31;20144;-65
2023/01/14 01:08:04;;;;;;;2.75;0.90;;;18.10;67.10;;;;;;4530991;31;20140;-65
2023/01/14 01:10:36;;;;;;;2.53;0.75;;;18.10;67.10;;;;;;4530809;31;20115;-65
2023/01/14 01:13:03;;;;;;;2.33;0.98;;;18.00;67.10;;;;;;4529889;31;20151;-65
2023/01/14 01:15:36;;;;;;;2.53;1.10;;;18.10;67.10;;;;;;4529570;31;20120;-65
2023/01/14 01:18:04;;;;;;;2.08;0.88;;;18.00;67.10;;;;;;4515195;31;20156;-65
2023/01/14 01:20:35;;;;;;;3.15;0.90;;;18.00;67.00;;;;;;4531096;31;20228;-65
2023/01/14 01:23:02;;;;;;;2.65;0.80;;;18.00;67.10;;;;;;4529918;31;20140;-65
2023/01/14 01:25:29;;;;;;;3.67;0.95;;;18.00;67.00;;;;;;4530632;31;20580;-65
2023/01/14 01:27:56;;;;;;;2.75;0.90;;;18.00;67.00;;;;;;4530903;31;20099;-65
2023/01/14 01:30:23;;;;;;;2.42;0.88;;;18.00;67.00;;;;;;4528456;31;20831;-65
2023/01/14 01:32:49;;;;;;;2.33;0.88;;;18.00;67.00;;;;;;4530875;31;20127;-65
2023/01/14 01:35:15;;;;;;;3.50;1.02;;;18.00;66.90;;;;;;4529273;31;20228;-65
2023/01/14 01:37:42;;;;;;;3.65;1.00;;;18.00;66.90;;;;;;4530897;31;20892;-65
2023/01/14 01:40:12;;;;;;;2.35;0.88;;;18.00;67.00;;;;;;4529625;31;20244;-65
2023/01/14 01:42:54;;;;;;;3.10;1.00;;;18.00;66.90;;;;;;4530112;31;20185;-65
2023/01/14 01:45:43;;;;;;;4.05;1.05;;;18.00;66.90;;;;;;4530826;31;20649;-66
2023/01/14 01:48:16;;;;;;;2.40;0.85;;;18.00;66.80;;;;;;4528398;31;20147;-66
2023/01/14 01:50:45;;;;;;;2.63;1.00;;;17.90;66.90;;;;;;4530529;31;20193;-65
2023/01/14 01:53:12;;;;;;;3.05;1.08;;;17.90;66.90;;;;;;4528102;31;20285;-65
2023/01/14 01:55:40;;;;;;;2.25;0.82;;;17.90;66.80;;;;;;4529977;31;20132;-65
2023/01/14 01:58:08;;;;;;;2.53;1.10;;;17.90;66.80;;;;;;4530651;31;20185;-65
2023/01/14 02:00:34;;;;;;;2.40;0.75;;;17.90;66.80;;;;;;4528848;31;20140;-66
2023/01/14 02:03:06;;;;;;;2.05;0.80;;;17.90;66.80;;;;;;4530564;31;20155;-66
2023/01/14 02:05:37;;;;;;;5.25;1.35;;;17.90;66.80;;;;;;4529133;31;20281;-65
2023/01/14 02:08:11;;;;;;;3.08;0.85;;;17.90;66.90;;;;;;4530011;31;20143;-65
2023/01/14 02:11:22;;;;;;;2.90;1.10;;;17.90;66.70;;;;;;4530370;31;20141;-65
2023/01/14 02:14:06;;;;;;;2.90;0.80;;;17.90;66.70;;;;;;4503861;31;20123;-65
2023/01/14 02:17:10;;;;;;;3.60;1.42;;;17.90;66.70;;;;;;4530146;31;20132;-65
2023/01/14 02:20:01;;;;;;;3.33;0.85;;;17.90;66.70;;;;;;4530191;31;20149;-65
2023/01/14 02:23:06;;;;;;;2.47;1.20;;;17.90;66.60;;;;;;4504905;31;20151;-65
2023/01/14 02:25:58;;;;;;;3.50;0.90;;;17.90;66.60;;;;;;4529331;31;20123;-66
2023/01/14 02:28:41;;;;;;;2.58;1.25;;;17.80;66.60;;;;;;4530196;31;20132;-65
2023/01/14 02:31:09;;;;;;;3.58;1.30;;;17.80;66.70;;;;;;4528633;31;20554;-65
2023/01/14 02:33:46;;;;;;;3.05;1.02;;;17.80;66.70;;;;;;4529946;31;20185;-65
2023/01/14 02:36:15;;;;;;;3.65;0.90;;;17.80;66.60;;;;;;4529525;31;20132;-65
2023/01/14 02:39:03;;;;;;;4.50;1.05;;;17.80;66.70;;;;;;4528924;31;20184;-65
2023/01/14 02:44:36;;;;;;;2.15;0.88;;;17.80;66.60;;;;;;4528787;31;20722;-65
2023/01/14 02:47:09;;;;;;;3.25;1.13;;;17.80;66.70;;;;;;4499616;31;20135;-65
2023/01/14 02:49:40;;;;;;;3.53;1.25;;;17.80;66.70;;;;;;4505184;31;20131;-65
2023/01/14 02:52:11;;;;;;;3.40;0.95;;;17.70;66.70;;;;;;4528443;31;20278;-65
2023/01/14 02:54:37;;;;;;;2.83;0.90;;;17.70;66.70;;;;;;4519019;31;20263;-65
2023/01/14 02:57:14;;;;;;;3.25;1.33;;;17.70;66.70;;;;;;4514192;31;20128;-65
2023/01/14 02:59:50;;;;;;;2.15;1.00;;;17.70;66.70;;;;;;4529349;31;20144;-65
2023/01/14 03:02:49;;;;;;;3.42;1.10;;;17.70;66.70;;;;;;4529922;31;20092;-65
2023/01/14 03:05:48;;;;;;;2.60;0.98;;;17.70;66.60;;;;;;4512473;31;20120;-65
2023/01/14 03:08:34;;;;;;;3.40;1.00;;;17.70;66.70;;;;;;4515064;31;20123;-66
2023/01/14 03:11:07;;;;;;;3.25;1.20;;;17.70;66.60;;;;;;4515575;31;20169;-65
2023/01/14 03:13:44;;;;;;;3.67;0.93;;;17.60;66.60;;;;;;4517999;31;20144;-65
2023/01/14 03:16:25;;;;;;;3.83;0.90;;;17.70;66.70;;;;;;4529879;31;20135;-64
2023/01/14 03:19:16;;;;;;;2.78;0.95;;;17.60;66.60;;;;;;4528522;31;20168;-65
2023/01/14 03:21:49;;;;;;;2.60;0.95;;;17.60;66.60;;;;;;4528351;31;20246;-65
2023/01/14 03:24:29;;;;;;;2.65;0.90;;;17.70;66.70;;;;;;4529890;31;20146;-65
2023/01/14 03:27:01;;;;;;;3.65;1.00;;;17.60;66.70;;;;;;4528091;31;20661;-65
2023/01/14 03:29:32;;;;;;;2.92;0.93;;;17.60;66.70;;;;;;4529615;31;20292;-65
2023/01/14 03:32:14;;;;;;;3.13;0.88;;;17.60;66.70;;;;;;4529350;31;20127;-65
2023/01/14 03:34:56;;;;;;;2.65;0.90;;;17.70;66.70;;;;;;4528201;31;20480;-65
2023/01/14 03:37:24;;;;;;;2.05;0.70;;;17.60;66.70;;;;;;4520192;31;20112;-65
2023/01/14 03:39:52;;;;;;;2.88;0.88;;;17.60;66.70;;;;;;4531212;31;20148;-65
2023/01/14 03:42:21;;;;;;;2.40;1.00;;;17.60;66.70;;;;;;4517825;31;20667;-65
2023/01/14 03:45:22;;;;;;;3.35;1.15;;;17.60;66.70;;;;;;4532131;31;20254;-66
2023/01/14 03:47:48;;;;;;;2.65;0.90;;;17.60;66.70;;;;;;4530982;31;20294;-66
2023/01/14 03:50:18;;;;;;;1.65;0.70;;;17.50;66.70;;;;;;4517872;31;20527;-65
2023/01/14 03:53:06;;;;;;;1.38;0.68;;;17.60;66.70;;;;;;4531234;31;20269;-65
2023/01/14 03:55:57;;;;;;;2.25;0.77;;;17.60;66.70;;;;;;4531966;31;20139;-65
2023/01/14 03:58:38;;;;;;;3.78;1.15;;;17.50;66.60;;;;;;4532500;31;20154;-65
2023/01/14 04:01:27;;;;;;;2.47;0.80;;;17.50;66.70;;;;;;4530897;31;20131;-65
2023/01/14 04:03:58;;;;;;;1.55;0.60;;;17.50;66.60;;;;;;4518159;31;20138;-65
2023/01/14 04:06:24;;;;;;;2.75;1.13;;;17.50;66.60;;;;;;4517724;31;20652;-65
2023/01/14 04:08:51;;;;;;;3.75;0.98;;;17.50;66.70;;;;;;4516472;31;20135;-65
2023/01/14 04:11:16;;;;;;;2.50;0.85;;;17.50;66.60;;;;;;4532011;31;20232;-65
2023/01/14 04:16:27;;;;;;;2.25;0.75;;;17.50;66.70;;;;;;4532090;31;20135;-65
2023/01/14 04:18:53;;;;;;;2.75;0.85;;;17.50;66.70;;;;;;4530774;31;20213;-66
2023/01/14 04:21:19;;;;;;;2.58;0.90;;;17.50;66.70;;;;;;4516722;31;20132;-65
2023/01/14 04:23:45;;;;;;;2.63;0.70;;;17.50;66.70;;;;;;4531943;31;20088;-65
2023/01/14 04:26:12;;;;;;;2.85;1.10;;;17.50;66.70;;;;;;4500391;31;20269;-65
2023/01/14 04:28:38;;;;;;;3.42;0.90;;;17.50;66.80;;;;;;4531231;31;20171;-65
2023/01/14 04:31:04;;;;;;;2.58;0.80;;;17.40;66.80;;;;;;4516149;31;20142;-65
2023/01/14 04:33:50;;;;;;;2.58;0.82;;;17.40;66.80;;;;;;4519430;31;20151;-65
2023/01/14 04:36:16;;;;;;;3.85;1.05;;;17.40;66.80;;;;;;4531549;31;20154;-65
2023/01/14 04:38:42;;;;;;;3.30;0.90;;;17.40;66.80;;;;;;4516168;31;20144;-65
2023/01/14 04:42:26;;;;;;;2.88;0.80;;;17.40;66.80;;;;;;4531865;31;20131;-65
2023/01/14 04:43:57;;;;;;;2.40;0.80;;;17.40;66.70;;;;;;4530078;31;20132;-65
2023/01/14 04:46:23;;;;;;;3.50;0.70;;;17.40;66.80;;;;;;4531562;31;20136;-65
2023/01/14 04:48:49;;;;;;;3.13;1.00;;;17.40;66.70;;;;;;4515691;31;20503;-65
2023/01/14 04:51:15;;;;;;;3.03;0.95;;;17.40;66.70;;;;;;4516657;31;20124;-65
2023/01/14 04:53:41;;;;;;;1.55;0.73;;;17.40;66.80;;;;;;4531260;31;20077;-65
2023/01/14 04:56:07;;;;;;;2.38;0.80;;;17.40;66.70;;;;;;4515866;31;20312;-65
2023/01/14 04:58:38;;;;;;;2.28;0.80;;;17.40;66.70;;;;;;4531476;31;20256;-65
2023/01/14 05:01:04;;;;;;;2.28;0.90;;;17.40;66.50;;;;;;4502304;31;20116;-65
2023/01/14 05:03:31;;;;;;;3.08;0.85;;;17.50;66.50;;;;;;4517241;31;20131;-65
2023/01/14 05:05:57;;;;;;;1.73;0.70;;;17.50;66.40;;;;;;4530067;31;20278;-65
2023/01/14 05:08:23;;;;;;;2.60;0.85;;;17.50;66.30;;;;;;4516547;31;20127;-65
2023/01/14 05:10:49;;;;;;;2.17;0.90;;;17.50;66.30;;;;;;4531270;31;20076;-65
2023/01/14 05:13:16;;;;;;;1.50;0.70;;;17.50;66.20;;;;;;4515203;31;20788;-65
2023/01/14 05:15:43;;;;;;;1.50;0.68;;;17.50;66.10;;;;;;4516916;31;20135;-65
2023/01/14 05:18:11;;;;;;;1.60;0.60;;;17.60;66.10;;;;;;4529459;31;20170;-65
2023/01/14 05:20:39;;;;;;;2.65;0.60;;;17.60;66.00;;;;;;4531181;31;20133;-65
2023/01/14 05:23:14;;;;;;;2.03;1.00;;;17.60;66.00;;;;;;4530000;31;20139;-65
2023/01/14 05:25:42;;;;;;;3.70;1.20;;;17.60;65.80;;;;;;4530048;31;20143;-65
2023/01/14 05:28:12;;;;;;;2.55;0.70;;;17.70;65.90;;;;;;4530850;31;20132;-65
2023/01/14 05:30:38;;;;;;;2.83;0.77;;;17.60;65.80;;;;;;4514998;31;20116;-65
2023/01/14 05:33:24;;;;;;;2.25;0.90;;;17.60;65.70;;;;;;4518959;31;20120;-65
2023/01/14 05:36:10;;;;;;;2.03;0.70;;;17.60;65.60;;;;;;4518654;31;20112;-65
2023/01/14 05:38:56;;;;;;;1.10;0.60;;;17.60;65.70;;;;;;4517435;31;20484;-65
2023/01/14 05:47:33;;;;;;;1.75;0.65;;;17.70;65.60;;;;;;4529466;31;20150;-65
2023/01/14 05:50:02;;;;;;;2.22;0.80;;;17.70;65.50;;;;;;4516679;31;20217;-65
2023/01/14 05:52:28;;;;;;;2.90;1.08;;;17.70;66.40;;;;;;4529005;31;20119;-65
2023/01/14 05:54:54;;;;;;;1.40;0.80;;;17.70;65.40;;;;;;4516075;31;20134;-65
2023/01/14 05:57:19;;;;;;;2.20;0.80;;;17.70;65.50;;;;;;4515165;31;20115;-65
2023/01/14 05:59:45;;;;;;;2.45;0.77;;;17.70;65.50;;;;;;4529905;31;20124;-65
2023/01/14 06:07:56;;;;;;;1.85;0.70;;;17.70;65.50;;;;;;4498851;31;20136;-65
2023/01/14 06:10:25;;;;;;;0.98;0.50;;;17.70;65.50;;;;;;4515528;31;20136;-65
2023/01/14 06:12:57;;;;;;;1.30;0.52;;;17.70;65.50;;;;;;4514605;31;20598;-65
2023/01/14 06:15:36;;;;;;;2.10;0.90;;;17.70;65.50;;;;;;4530544;31;20146;-66
2023/01/14 06:18:15;;;;;;;3.13;0.70;;;17.70;65.50;;;;;;4515039;31;20198;-65
2023/01/14 06:20:42;;;;;;;2.03;0.60;;;17.70;65.50;;;;;;4515821;31;20156;-65
2023/01/14 06:23:09;;;;;;;3.25;0.80;;;17.70;65.50;;;;;;4515205;31;20278;-65
2023/01/14 06:25:35;;;;;;;1.95;0.70;;;17.70;65.50;;;;;;4529633;31;20552;-65
2023/01/14 06:28:01;;;;;;;1.92;0.70;;;17.70;65.50;;;;;;4530066;31;20080;-65
2023/01/14 06:30:29;;;;;;;1.48;0.63;;;17.70;65.50;;;;;;4528826;31;20145;-65
2023/01/14 06:33:11;;;;;;;1.58;0.70;;;17.70;65.40;;;;;;4530219;31;20139;-65
2023/01/14 06:35:44;;;;;;;2.28;0.88;;;17.70;65.40;;;;;;4528811;31;20140;-65
2023/01/14 06:38:11;;;;;;;2.95;0.73;;;17.80;65.50;;;;;;4529949;31;20132;-65
2023/01/14 06:40:38;;;;;;;2.00;0.60;;;17.70;65.40;;;;;;4515619;31;20094;-65
2023/01/14 06:43:08;;;;;;;1.40;0.68;;;17.80;65.50;;;;;;4528526;31;20128;-65
2023/01/14 06:45:35;;;;;;;2.65;0.65;;;17.70;65.40;;;;;;4530068;31;20633;-66
2023/01/14 06:48:01;;;;;;;1.45;0.60;;;17.70;65.40;;;;;;4528562;31;20596;-65
2023/01/14 06:50:27;;;;;;;2.33;0.90;;;17.70;65.40;;;;;;4530096;31;20192;-65
2023/01/14 06:52:53;;;;;;;1.55;0.70;;;17.70;65.30;;;;;;4528810;31;20135;-66
2023/01/14 06:55:22;;;;;;;2.58;0.70;;;17.80;65.40;;;;;;4515101;31;20136;-66
2023/01/14 06:57:48;;;;;;;2.08;0.70;;;17.70;65.30;;;;;;4502442;31;20160;-66
2023/01/14 07:00:14;;;;;;;1.58;0.52;;;17.70;65.30;;;;;;4500971;31;20152;-65
2023/01/14 07:02:41;;;;;;;1.92;0.70;;;17.70;65.30;;;;;;4502245;31;20143;-65
2023/01/14 07:05:07;;;;;;;2.10;0.50;;;17.70;65.30;;;;;;4514001;31;20267;-65
2023/01/14 07:07:33;;;;;;;2.63;0.80;;;17.70;65.20;;;;;;4502463;31;20139;-65
2023/01/14 07:09:59;;;;;;;1.33;0.70;;;17.70;65.30;;;;;;4514117;31;20139;-65
2023/01/14 07:12:25;;;;;;;2.65;0.90;;;17.70;65.30;;;;;;4530008;31;20124;-65
2023/01/14 07:14:56;;;;;;;2.33;0.90;;;17.70;65.20;;;;;;4532759;31;20076;-65
2023/01/14 07:17:22;;;;;;;2.70;0.90;;;17.70;65.20;;;;;;4531736;31;20130;-66
2023/01/14 07:19:48;;;;;;;2.50;0.70;;;17.70;65.20;;;;;;4532853;31;20116;-65
2023/01/14 07:22:14;;;;;;;2.05;0.77;;;17.70;65.20;;;;;;4517131;31;20139;-66
2023/01/14 07:24:40;;;;;;;2.35;0.68;;;17.60;65.20;;;;;;4532895;31;20120;-65
2023/01/14 07:27:06;;;;;;;1.85;0.90;;;17.60;65.20;;;;;;4501461;31;20194;-65
2023/01/14 07:29:32;;;;;;;2.85;0.80;;;17.60;65.30;;;;;;4526531;31;20147;-66
2023/01/14 07:32:00;;;;;;;1.85;0.77;;;17.60;65.20;;;;;;4532637;31;20192;-65
2023/01/14 07:34:26;;;;;;;2.13;0.65;;;17.60;65.40;;;;;;4531442;31;20178;-65
2023/01/14 07:36:52;;;;;;;2.13;0.73;;;17.60;65.20;;;;;;4532759;31;20159;-65
2023/01/14 07:39:18;;;;;;;1.27;0.75;;;17.60;65.30;;;;;;4516870;31;20116;-66
2023/01/14 07:41:45;;;;;;;2.25;0.77;;;17.60;65.30;;;;;;4518184;31;20140;-65
2023/01/14 07:44:10;;;;;;;1.10;0.60;;;17.60;65.40;;;;;;4516936;31;20124;-65
2023/01/14 07:46:36;;;;;;;2.47;0.70;;;17.60;65.30;;;;;;4532395;31;20116;-66
2023/01/14 07:49:02;;;;;;;2.15;0.80;;;17.60;65.40;;;;;;4504506;31;20196;-66
2023/01/14 07:51:28;;;;;;;2.53;0.88;;;17.50;65.50;;;;;;4516945;31;20186;-66
2023/01/14 07:53:54;;;;;;;6.75;0.95;;;17.50;65.60;;;;;;4532247;31;20254;-66
2023/01/14 07:56:20;;;;;;;3.08;0.88;;;17.50;66.00;;;;;;4516552;31;20488;-66
2023/01/14 07:58:48;;;;;;;2.60;0.90;;;17.60;66.20;;;;;;4532416;31;20116;-66
2023/01/14 08:01:14;;;;;;;2.33;0.75;;;17.60;66.60;;;;;;4530832;31;20282;-65
2023/01/14 08:03:40;;;;;;;3.00;0.88;;;17.60;66.60;;;;;;4532242;31;20140;-66
2023/01/14 08:06:06;;;;;;;2.80;0.80;;;17.70;66.50;;;;;;4502743;31;20171;-65
2023/01/14 08:08:35;;;;;;;5.82;1.05;;;17.80;66.30;;;;;;4516834;31;20167;-66
2023/01/14 08:11:02;;;;;;;4.15;0.88;;;17.90;66.00;;;;;;4532114;31;20537;-65
2023/01/14 08:13:30;;;;;;;3.20;1.10;;;18.00;65.70;;;;;;4530306;31;20185;-66
2023/01/14 08:15:58;;;;;;;2.10;0.80;;;18.20;65.40;;;;;;4532221;31;20119;-65
2023/01/14 08:18:24;;;;;;;2.58;1.00;;;18.30;65.00;;;;;;4516300;31;20624;-68
2023/01/14 08:21:02;;;;;;;2.97;1.00;;;18.40;64.60;;;;;;4531697;31;20241;-65
2023/01/14 08:23:29;;;;;;;4.43;1.00;;;18.60;64.30;;;;;;4531419;31;20135;-66
2023/01/14 08:26:00;;;;;;;4.80;0.90;;;18.70;63.90;;;;;;4530080;31;20204;-66
2023/01/14 08:28:26;;;;;;;2.85;1.00;;;18.90;63.70;;;;;;4532104;31;20096;-66
2023/01/14 08:31:03;;;;;;;3.90;1.13;;;19.00;63.30;;;;;;4515871;31;20208;-66
2023/01/14 08:33:31;;;;;;;2.00;0.60;;;19.10;63.00;;;;;;4517379;31;20132;-65
2023/01/14 08:36:08;;;;;;;3.20;1.10;;;19.20;62.60;;;;;;4531053;31;20142;-66
2023/01/14 08:38:38;;;;;;;3.45;1.23;;;19.30;62.50;;;;;;4530558;31;20116;-65
2023/01/14 08:41:10;;;;;;;3.70;1.08;;;19.30;62.50;;;;;;4531826;31;20236;-65
2023/01/14 08:43:36;;;;;;;2.30;0.85;;;19.40;62.60;;;;;;4529883;31;20119;-66
2023/01/14 08:46:03;;;;;;;2.80;0.82;;;19.40;62.50;;;;;;4531950;31;20220;-66
2023/01/14 08:48:30;;;;;;;5.43;1.10;;;19.50;62.50;;;;;;4530386;31;20139;-66
2023/01/14 08:51:04;;;;;;;3.83;1.10;;;19.50;62.50;;;;;;4501370;31;20152;-65
2023/01/14 08:53:31;;;;;;;4.20;1.30;;;19.50;62.60;;;;;;4526371;31;20130;-67
2023/01/14 08:55:58;;;;;;;3.03;1.00;;;19.50;62.70;;;;;;4530214;31;20179;-67
2023/01/14 08:58:26;;;;;;;4.88;1.20;;;19.50;62.80;;;;;;4517285;31;20132;-66
2023/01/14 09:01:01;;;;;;;4.05;0.88;;;19.50;62.90;;;;;;4515114;31;20138;-66
2023/01/14 09:03:32;;;;;;;4.43;1.27;;;19.50;63.00;;;;;;4531368;31;20665;-66
2023/01/14 09:06:13;;;;;;;7.32;1.02;;;19.50;62.90;;;;;;4530987;31;20139;-65
2023/01/14 09:17:10;;;;;;;3.92;1.30;;;19.50;63.20;;;;;;4530351;31;20193;-66
2023/01/14 09:19:50;;;;;;;6.72;1.52;;;19.50;63.20;;;;;;4531026;31;20136;-64
2023/01/14 09:22:20;;;;;;;6.15;1.10;;;19.50;63.30;;;;;;4529609;31;20108;-66
2023/01/14 09:24:46;;;;;;;3.42;0.90;;;19.50;63.40;;;;;;4530954;31;20146;-65
2023/01/14 09:27:12;;;;;;;2.97;1.02;;;19.50;63.50;;;;;;4515674;31;20179;-66
2023/01/14 09:29:38;;;;;;;5.10;1.25;;;19.50;63.50;;;;;;4530526;31;20131;-66
2023/01/14 09:32:08;;;;;;;6.72;1.38;;;19.50;63.50;;;;;;4530664;31;20068;-66
2023/01/14 09:34:38;;;;;;;8.13;1.27;;;19.50;63.60;;;;;;4529348;31;20151;-67
2023/01/14 09:37:05;;;;;;;4.13;1.20;;;19.50;63.60;;;;;;4530603;31;20344;-67
2023/01/14 09:39:33;;;;;;;9.52;1.23;;;19.40;63.70;;;;;;4529261;31;20142;-66
2023/01/14 09:42:03;;;;;;;3.67;1.13;;;19.50;63.90;;;;;;4530427;31;20124;-66
2023/01/14 09:44:29;;;;;;;4.88;1.00;;;19.50;64.00;;;;;;4529852;31;20162;-66
2023/01/14 09:46:56;;;;;;;6.63;1.30;;;19.50;64.10;;;;;;4529882;31;20124;-66
2023/01/14 09:49:24;;;;;;;3.45;1.20;;;19.50;64.20;;;;;;4530753;31;20072;-67
2023/01/14 09:52:24;;;;;;;9.07;1.50;;;19.50;64.30;;;;;;4514697;31;20343;-67
2023/01/14 09:55:11;;;;;;;4.32;1.20;;;19.50;64.30;;;;;;4516289;31;20132;-70
2023/01/14 09:57:51;;;;;;;5.35;1.33;;;19.50;64.40;;;;;;4515602;31;20065;-67
2023/01/14 10:00:20;;;;;;;3.25;0.90;;;19.50;64.40;;;;;;4511769;31;20187;-68
2023/01/14 10:02:58;;;;;;;4.75;1.10;;;19.50;64.40;;;;;;4529394;31;20628;-68
2023/01/14 10:05:33;;;;;;;3.17;1.20;;;19.50;64.40;;;;;;4525454;31;20171;-68
2023/01/14 10:08:05;;;;;;;7.47;1.88;;;19.50;64.50;;;;;;4528057;31;20132;-67
2023/01/14 10:10:41;;;;;;;5.53;1.25;;;19.60;64.50;;;;;;4529392;31;20221;-67
2023/01/14 10:13:14;;;;;;;8.05;1.30;;;19.50;64.50;;;;;;4514142;31;20146;-67
2023/01/14 10:16:17;;;;;;;2.92;0.88;;;19.50;64.40;;;;;;4516246;31;20128;-68
2023/01/14 10:18:54;;;;;;;7.03;1.23;;;19.50;64.40;;;;;;4519925;31;20158;-66
2023/01/14 10:21:42;;;;;;;8.23;1.30;;;19.50;64.50;;;;;;4509579;31;20155;-66
2023/01/14 10:24:12;;;;;;;4.25;0.95;;;19.50;64.50;;;;;;4512211;31;20140;-64
2023/01/14 10:26:40;;;;;;;4.10;1.10;;;19.50;64.50;;;;;;4509147;31;20245;-66
2023/01/14 10:29:21;;;;;;;4.88;1.00;;;19.50;64.50;;;;;;4512813;31;20132;-65
2023/01/14 10:32:12;;;;;;;5.38;1.30;;;19.50;64.50;;;;;;4522723;31;20088;-66
2023/01/14 10:34:45;;;;;;;3.65;1.17;;;19.50;64.50;;;;;;4511266;31;20136;-66
2023/01/14 10:37:13;;;;;;;4.20;1.10;;;19.50;64.60;;;;;;4513050;31;20136;-66
2023/01/14 10:39:50;;;;;;;4.25;1.23;;;19.40;64.60;;;;;;4511374;31;20132;-66
2023/01/14 10:42:35;;;;;;;8.57;1.05;;;19.40;64.70;;;;;;4512374;31;20261;-65
2023/01/14 10:45:00;;;;;;;;;;;19.30;64.80;;;;;;4513602;31;20132;-65
2023/01/14 10:47:26;;;;;;;3.25;1.10;;;19.20;64.90;;;;;;4510792;31;20020;-66
2023/01/14 10:49:57;;;;;;;3.00;1.30;;;19.20;65.20;;;;;;4512778;31;20290;-66
2023/01/14 10:52:32;;;;;;;5.80;1.20;;;19.10;65.20;;;;;;4509493;31;20595;-66
2023/01/14 10:55:01;;;;;;;3.00;0.88;;;19.00;65.30;;;;;;4512420;31;20132;-65
2023/01/14 10:57:34;;;;;;;2.78;1.08;;;19.00;65.50;;;;;;4510504;31;20163;-65
2023/01/14 11:00:00;;;;;;;3.87;1.20;;;18.90;65.60;;;;;;4511376;31;20274;-65
2023/01/14 11:02:48;;;;;;;6.10;1.15;;;18.90;65.70;;;;;;4512947;31;20121;-65
2023/01/14 11:05:38;;;;;;;4.00;1.20;;;18.80;65.70;;;;;;4503403;31;20739;-65
2023/01/14 11:08:16;;;;;;;2.80;0.90;;;18.80;65.80;;;;;;4513448;31;20152;-65
2023/01/14 11:10:42;;;;;;;3.10;1.00;;;18.70;65.90;;;;;;4513891;31;20081;-65
2023/01/14 11:13:14;;;;;;;2.30;0.90;;;18.60;66.10;;;;;;4510980;31;20265;-65
2023/01/14 11:15:45;;;;;;;3.03;1.08;;;18.60;66.20;;;;;;4513968;31;20185;-65
2023/01/14 11:18:29;;;;;;;1.52;0.93;;;18.60;66.30;;;;;;4511226;31;20143;-66
2023/01/14 11:21:01;;;;;;;3.88;1.10;;;18.50;66.40;;;;;;4522632;31;20226;-65
2023/01/14 11:23:31;;;;;;;4.05;1.10;;;18.50;66.50;;;;;;4515401;31;20103;-65
2023/01/14 11:26:08;;;;;;;3.85;1.17;;;18.40;66.60;;;;;;4513976;31;20146;-65
2023/01/14 11:28:42;;;;;;;3.50;1.08;;;18.40;66.60;;;;;;4529839;31;20131;-65
2023/01/14 11:31:09;;;;;;;2.22;0.80;;;18.40;66.70;;;;;;4528507;31;20150;-65
2023/01/14 11:33:48;;;;;;;2.65;1.20;;;18.40;66.70;;;;;;4514966;31;20171;-66
2023/01/14 11:36:23;;;;;;;2.95;1.08;;;18.40;66.70;;;;;;4529677;31;20245;-66
2023/01/14 11:38:51;;;;;;;3.80;1.00;;;18.30;66.60;;;;;;4528211;31;20142;-65
2023/01/14 11:41:36;;;;;;;3.97;1.33;;;18.30;66.70;;;;;;4500042;31;20176;-65
2023/01/14 11:44:10;;;;;;;2.83;0.90;;;18.30;66.70;;;;;;4515970;31;20135;-65
2023/01/14 11:46:41;;;;;;;2.33;0.80;;;18.30;66.70;;;;;;4514951;31;20131;-66
2023/01/14 11:49:20;;;;;;;2.67;0.75;;;18.30;66.70;;;;;;4515890;31;20087;-65
2023/01/14 11:52:01;;;;;;;3.20;0.85;;;18.30;66.70;;;;;;4528280;31;20135;-65
2023/01/14 11:54:39;;;;;;;3.40;0.80;;;18.30;66.70;;;;;;4505461;31;20154;-66
2023/01/14 11:57:10;;;;;;;1.90;0.85;;;18.30;66.70;;;;;;4528280;31;20143;-65
2023/01/14 11:59:38;;;;;;;2.10;0.90;;;18.30;66.60;;;;;;4531054;31;20124;-65
2023/01/14 12:02:13;;;;;;;2.25;0.70;;;18.30;66.60;;;;;;4517901;31;20079;-66
2023/01/14 12:04:45;;;;;;;2.33;1.10;;;18.30;66.60;;;;;;4530784;31;20143;-66
2023/01/14 12:07:29;;;;;;;2.58;1.00;;;18.30;66.60;;;;;;4518033;31;20254;-66
2023/01/14 12:10:17;;;;;;;2.30;0.98;;;18.30;66.60;;;;;;4531114;31;20124;-66
2023/01/14 12:18:56;;;;;;;1.33;0.65;;;18.30;66.50;;;;;;4530933;31;20157;-66
2023/01/14 12:21:30;;;;;;;2.55;0.80;;;18.30;66.40;;;;;;4516033;31;20131;-65
2023/01/14 12:24:37;;;;;;;2.90;0.90;;;18.30;66.50;;;;;;4532212;31;20112;-65
2023/01/14 12:27:07;;;;;;;1.73;0.80;;;18.30;66.40;;;;;;4516208;31;20592;-66
2023/01/14 12:29:40;;;;;;;3.22;0.50;;;18.30;66.40;;;;;;4531537;31;20120;-65
2023/01/14 12:32:23;;;;;;;3.47;0.75;;;18.30;66.30;;;;;;4517645;31;20569;-65
2023/01/14 12:34:52;;;;;;;1.92;0.80;;;18.30;66.30;;;;;;4530135;31;20130;-66
2023/01/14 12:37:22;;;;;;;1.25;0.60;;;18.30;66.30;;;;;;4532085;31;20143;-66
2023/01/14 12:45:41;;;;;;;1.65;0.60;;;18.30;66.30;;;;;;4531947;31;20128;-65
2023/01/14 12:48:08;;;;;;;2.78;0.75;;;18.30;66.30;;;;;;4530247;31;20136;-65
2023/01/14 12:50:42;;;;;;;4.43;0.80;;;18.30;66.20;;;;;;4531600;31;20715;-65
2023/01/14 12:53:23;;;;;;;1.35;0.68;;;18.30;66.20;;;;;;4530842;31;20684;-65
2023/01/14 12:55:50;;;;;;;2.25;0.80;;;18.30;66.20;;;;;;4529954;31;20151;-65
2023/01/14 12:58:23;;;;;;;1.70;0.70;;;18.30;66.20;;;;;;4531706;31;20123;-65
2023/01/14 13:00:56;;;;;;;1.75;0.60;;;18.30;66.20;;;;;;4529769;31;20518;-66
2023/01/14 13:03:29;;;;;;;2.13;0.82;;;18.30;66.20;;;;;;4531610;31;20191;-66
2023/01/14 13:05:55;;;;;;;1.35;0.52;;;18.30;66.10;;;;;;4530760;31;20135;-65
2023/01/14 13:08:33;;;;;;;2.15;0.60;;;18.30;66.10;;;;;;4516261;31;20192;-65
2023/01/14 13:11:05;;;;;;;1.20;0.57;;;18.30;66.10;;;;;;4530851;31;20545;-66
2023/01/14 13:13:40;;;;;;;2.40;0.60;;;18.30;66.10;;;;;;4518892;31;20136;-66
2023/01/14 13:16:31;;;;;;;1.33;0.70;;;18.30;66.10;;;;;;4531101;31;20233;-65
2023/01/14 13:18:59;;;;;;;2.55;0.70;;;18.30;66.60;;;;;;4516678;31;20096;-65
2023/01/14 13:21:53;;;;;;;4.63;0.95;;;18.30;66.80;;;;;;4529360;31;20190;-65
2023/01/14 13:24:57;;;;;;;3.83;0.77;;;18.30;67.10;;;;;;4531036;31;20109;-65
2023/01/14 13:27:35;;;;;;;2.97;1.00;;;18.30;67.50;;;;;;4523655;31;20162;-66
2023/01/14 13:30:19;;;;;;;5.43;0.73;;;18.30;67.70;;;;;;4524648;31;20262;-66
2023/01/14 13:33:00;;;;;;;4.40;0.95;;;18.40;67.50;;;;;;4526565;31;20190;-66
2023/01/14 13:35:27;;;;;;;2.55;0.90;;;18.40;67.40;;;;;;4525158;31;20128;-66
2023/01/14 13:37:55;;;;;;;4.75;0.93;;;18.50;67.20;;;;;;4528695;31;20190;-66
2023/01/14 13:40:36;;;;;;;1.83;0.82;;;18.60;67.00;;;;;;4527640;31;20103;-68
2023/01/14 13:43:22;;;;;;;4.00;0.55;;;18.60;66.70;;;;;;4527745;31;20124;-65
2023/01/14 13:45:55;;;;;;;3.08;0.52;;;18.80;66.40;;;;;;4506448;31;20155;-67
2023/01/14 13:48:25;;;;;;;3.40;0.73;;;18.90;66.20;;;;;;4519095;31;20147;-67
2023/01/14 13:50:52;;;;;;;2.50;0.30;;;19.00;65.90;;;;;;4525501;31;20132;-66
2023/01/14 13:53:24;;;;;;;6.32;0.70;;;19.20;65.50;;;;;;4524836;31;20073;-67